Weather at Raemoir House Hotel Helipad

Public forecast

Using degrees Celsius for public forecast. Weather courtesy of forecast.io.

Closest aviation weather report (METAR) to Raemoir House Hotel Helipad

Closest report is Aberdeen Dyce Airport, 12.2 nm (22.6 km) NE. Retrieved 2021/07/31 05:20 UTC (28 minutes ago):

EGPD 310520Z AUTO 33009KT 9999 BKN009 OVC013 11/10 Q1005 TEMPO BKN010

Closest aviation forecast (TAF) to Raemoir House Hotel Helipad

Closest forecast is Aberdeen Dyce Airport, 12.2 nm (22.6 km) NE. Retrieved 2021-07-31 00:00 UTC (6 hours ago):

TAF EGPD 302258Z 3100/3124 32007KT 9999 BKN014 TEMPO 3100/3108 6000 -RADZ BKN006 PROB30 TEMPO 3100/3108 2000 RADZ BR BKN004 BECMG 3106/3109 FEW014 SCT025 PROB40 TEMPO 3109/3115 BKN014 PROB30 TEMPO 3109/3120 7000 -SHRA